Time;durP1;ratioP1;P1;durP2;ratioP2;P2;SDS_P1;SDS_P2;PMS_P1;PMS_P2;Temp;Humidity;BMP_temperature;BMP_pressure;BME280_temperature;BME280_humidity;BME280_pressure;Samples;Min_cycle;Max_cycle;Signal;HPM_P1;HPM_P2
2023/10/26 00:01:21;;;;;;;27.85;19.50;;;;;;;9.89;100.00;99442.59;5009669;28;20088;-71
2023/10/26 00:03:48;;;;;;;24.90;18.90;;;;;;;9.90;100.00;99454.84;5021723;28;20046;-70
2023/10/26 00:06:16;;;;;;;26.08;19.90;;;;;;;9.89;100.00;99447.84;5045911;28;20046;-70
2023/10/26 00:08:43;;;;;;;30.60;20.65;;;;;;;9.88;100.00;99461.06;5042541;28;20042;-70
2023/10/26 00:11:10;;;;;;;30.13;21.48;;;;;;;9.90;100.00;99451.34;5015964;28;20045;-70
2023/10/26 00:13:37;;;;;;;32.33;21.80;;;;;;;9.92;100.00;99457.38;5019844;28;20132;-71
2023/10/26 00:16:04;;;;;;;29.00;21.95;;;;;;;9.92;100.00;99462.66;5021652;28;20052;-71
2023/10/26 00:18:31;;;;;;;31.90;21.83;;;;;;;9.93;100.00;99461.72;5007433;28;20046;-70
2023/10/26 00:21:00;;;;;;;29.85;19.95;;;;;;;9.94;100.00;99473.97;5009212;28;20053;-71
2023/10/26 00:23:27;;;;;;;22.42;17.90;;;;;;;9.94;100.00;99474.78;5023681;28;20057;-71
2023/10/26 00:25:54;;;;;;;25.00;18.25;;;;;;;9.93;100.00;99472.25;5022672;28;20056;-71
2023/10/26 00:28:22;;;;;;;25.48;18.98;;;;;;;9.89;100.00;99468.91;5012097;28;20053;-71
2023/10/26 00:30:49;;;;;;;27.85;18.15;;;;;;;9.91;100.00;99476.72;5044017;28;20483;-71
2023/10/26 00:33:16;;;;;;;24.42;16.90;;;;;;;9.89;100.00;99479.44;5028880;28;20876;-71
2023/10/26 00:35:43;;;;;;;24.13;17.27;;;;;;;9.89;100.00;99484.72;5013122;28;20422;-71
2023/10/26 00:38:10;;;;;;;26.13;18.40;;;;;;;9.90;100.00;99488.19;5026187;28;20687;-71
2023/10/26 00:40:37;;;;;;;23.63;17.50;;;;;;;9.90;100.00;99485.56;5033267;28;20097;-71
2023/10/26 00:43:04;;;;;;;24.90;18.27;;;;;;;9.89;100.00;99492.63;5044262;28;20049;-71
2023/10/26 00:45:35;;;;;;;26.92;19.63;;;;;;;9.87;100.00;99488.34;5021529;28;20065;-71
2023/10/26 00:48:05;;;;;;;26.20;19.20;;;;;;;9.84;100.00;99491.97;5022869;28;20057;-71
2023/10/26 00:50:32;;;;;;;26.77;20.30;;;;;;;9.80;100.00;99498.31;5007102;28;20414;-72
2023/10/26 00:53:00;;;;;;;28.85;21.65;;;;;;;9.76;100.00;99500.25;5007667;28;20069;-71
2023/10/26 00:55:29;;;;;;;26.13;19.70;;;;;;;9.73;100.00;99507.41;5016442;28;20107;-71
2023/10/26 00:57:56;;;;;;;25.80;19.90;;;;;;;9.69;100.00;99509.34;5015199;28;20053;-70
2023/10/26 01:00:24;;;;;;;26.13;18.67;;;;;;;9.63;100.00;99501.75;5016591;28;20585;-71
2023/10/26 01:02:51;;;;;;;23.80;19.35;;;;;;;9.62;100.00;99507.94;5025813;28;20569;-70
2023/10/26 01:05:18;;;;;;;31.60;21.15;;;;;;;9.58;100.00;99509.00;5019364;28;20103;-71
2023/10/26 01:07:47;;;;;;;27.70;20.95;;;;;;;9.56;100.00;99514.34;5009898;28;20050;-71
2023/10/26 01:10:14;;;;;;;28.20;20.77;;;;;;;9.55;100.00;99510.00;5015031;28;20302;-70
2023/10/26 01:12:41;;;;;;;28.55;21.35;;;;;;;9.54;100.00;99513.56;5016363;28;20045;-70
2023/10/26 01:15:09;;;;;;;28.67;20.42;;;;;;;9.53;100.00;99511.84;5021716;28;20391;-70
2023/10/26 01:17:36;;;;;;;28.77;20.67;;;;;;;9.48;100.00;99519.97;5023585;28;20050;-70
2023/10/26 01:20:05;;;;;;;33.03;21.98;;;;;;;9.40;100.00;99519.47;5010609;28;20045;-71
2023/10/26 01:22:32;;;;;;;28.35;21.25;;;;;;;9.35;100.00;99521.47;5012865;28;20411;-70
2023/10/26 01:24:59;;;;;;;33.10;23.05;;;;;;;9.28;100.00;99523.53;5007971;28;20727;-72
2023/10/26 01:27:27;;;;;;;35.00;22.45;;;;;;;9.23;100.00;99527.31;5005253;28;20696;-72
2023/10/26 01:29:55;;;;;;;32.58;23.33;;;;;;;9.19;100.00;99536.25;5014223;28;20037;-72
2023/10/26 01:32:26;;;;;;;31.92;20.63;;;;;;;9.16;100.00;99540.72;5005732;28;20046;-71
2023/10/26 01:34:53;;;;;;;34.70;21.90;;;;;;;9.15;100.00;99543.41;5027179;28;20146;-72
2023/10/26 01:37:21;;;;;;;31.73;22.13;;;;;;;9.14;100.00;99552.22;5028290;28;20046;-73
2023/10/26 01:39:48;;;;;;;33.78;22.58;;;;;;;9.15;100.00;99553.94;5012546;28;20065;-72
2023/10/26 01:42:15;;;;;;;37.38;23.95;;;;;;;9.14;100.00;99558.34;5051053;28;20065;-72
2023/10/26 01:44:43;;;;;;;33.50;22.02;;;;;;;9.15;100.00;99561.81;5022106;28;20045;-72
2023/10/26 01:47:12;;;;;;;34.90;22.77;;;;;;;9.16;100.00;99555.66;5016446;28;20058;-73
2023/10/26 01:49:40;;;;;;;35.53;24.75;;;;;;;9.18;100.00;99556.44;5049720;28;20052;-72
2023/10/26 01:52:07;;;;;;;41.30;24.50;;;;;;;9.19;100.00;99559.91;5020379;28;20145;-72
2023/10/26 01:54:34;;;;;;;36.70;25.00;;;;;;;9.19;100.00;99557.28;4990997;28;20066;-72
2023/10/26 01:57:04;;;;;;;36.33;25.20;;;;;;;9.22;100.00;99552.72;4989292;28;20521;-72
2023/10/26 01:59:31;;;;;;;34.50;22.65;;;;;;;9.25;100.00;99554.38;5007749;28;20045;-71
2023/10/26 02:01:58;;;;;;;37.95;24.38;;;;;;;9.25;100.00;99546.50;5039808;28;20079;-71
2023/10/26 02:04:25;;;;;;;38.97;25.73;;;;;;;9.24;100.00;99544.78;5017540;28;20072;-71
2023/10/26 02:06:52;;;;;;;38.08;25.65;;;;;;;9.24;100.00;99535.13;5008829;28;20638;-71
2023/10/26 02:09:20;;;;;;;38.17;25.83;;;;;;;9.24;100.00;99537.75;5015808;28;20038;-71
2023/10/26 02:11:47;;;;;;;33.83;23.35;;;;;;;9.26;100.00;99548.22;5022006;28;20150;-71
2023/10/26 02:14:14;;;;;;;39.63;24.17;;;;;;;9.25;100.00;99538.63;5006186;28;20124;-71
2023/10/26 02:16:41;;;;;;;36.55;25.25;;;;;;;9.20;100.00;99533.56;5012488;28;20076;-71
2023/10/26 02:19:08;;;;;;;37.55;24.20;;;;;;;9.19;100.00;99546.75;5029662;28;20045;-71
2023/10/26 02:21:35;;;;;;;35.72;23.27;;;;;;;9.16;100.00;99540.72;5024670;28;20041;-71
2023/10/26 02:24:02;;;;;;;34.28;23.33;;;;;;;9.12;100.00;99538.28;5010528;28;20046;-72
2023/10/26 02:26:29;;;;;;;36.15;23.85;;;;;;;9.13;100.00;99538.25;5023160;28;20060;-72
2023/10/26 02:28:56;;;;;;;33.42;24.67;;;;;;;9.13;100.00;99529.47;5024246;28;20041;-72
2023/10/26 02:31:23;;;;;;;34.58;23.52;;;;;;;9.12;100.00;99536.53;5024277;28;20128;-72
2023/10/26 02:33:50;;;;;;;35.47;24.67;;;;;;;9.11;100.00;99544.47;5012614;28;20042;-73
2023/10/26 02:36:17;;;;;;;39.63;25.35;;;;;;;9.08;100.00;99532.31;5024135;28;20120;-72
2023/10/26 02:38:45;;;;;;;43.83;27.65;;;;;;;9.06;100.00;99531.53;5022443;28;20141;-72
2023/10/26 02:41:12;;;;;;;38.92;23.00;;;;;;;9.05;100.00;99545.63;5019427;28;20127;-72
2023/10/26 02:43:39;;;;;;;41.38;25.00;;;;;;;9.02;100.00;99557.09;5031032;28;20136;-71
2023/10/26 02:46:09;;;;;;;42.97;27.02;;;;;;;9.00;100.00;99553.69;5006639;28;20049;-72
2023/10/26 02:48:37;;;;;;;51.13;28.58;;;;;;;9.01;100.00;99562.44;5032329;28;20048;-72
2023/10/26 02:51:05;;;;;;;44.03;26.00;;;;;;;9.00;100.00;99566.81;5018754;28;20883;-72
2023/10/26 02:53:33;;;;;;;48.33;28.15;;;;;;;8.97;100.00;99561.72;5020248;28;20045;-71
2023/10/26 02:56:00;;;;;;;40.67;25.45;;;;;;;8.95;100.00;99563.56;5037657;28;20053;-71
2023/10/26 02:58:27;;;;;;;55.17;29.15;;;;;;;8.94;100.00;99558.38;5011583;28;20054;-72
2023/10/26 03:00:55;;;;;;;54.80;30.38;;;;;;;8.94;100.00;99559.22;5021043;28;20052;-72
2023/10/26 03:03:22;;;;;;;62.92;31.10;;;;;;;8.96;100.00;99549.50;5012953;28;20041;-72
2023/10/26 03:05:51;;;;;;;51.45;29.17;;;;;;;8.98;100.00;99554.69;5021591;28;20042;-72
2023/10/26 03:08:19;;;;;;;58.47;30.23;;;;;;;8.96;100.00;99549.50;5004627;28;20569;-72
2023/10/26 03:10:46;;;;;;;63.17;30.40;;;;;;;8.97;100.00;99558.22;5048224;28;20700;-72
2023/10/26 03:13:13;;;;;;;55.42;30.60;;;;;;;8.96;100.00;99554.75;5024229;28;20092;-72
2023/10/26 03:15:40;;;;;;;59.10;30.38;;;;;;;8.96;100.00;99556.53;5038881;28;20041;-72
2023/10/26 03:18:08;;;;;;;53.00;30.08;;;;;;;8.93;100.00;99554.03;5032765;28;20390;-71
2023/10/26 03:20:35;;;;;;;56.40;30.58;;;;;;;8.93;100.00;99554.03;5024508;28;20456;-71
2023/10/26 03:23:02;;;;;;;66.78;30.23;;;;;;;8.91;100.00;99545.38;5017141;28;20087;-71
2023/10/26 03:25:29;;;;;;;64.25;32.88;;;;;;;8.92;100.00;99549.72;5026573;28;20276;-71
2023/10/26 03:27:56;;;;;;;60.50;30.23;;;;;;;8.93;100.00;99539.13;5028538;28;20104;-72
2023/10/26 03:30:23;;;;;;;72.50;33.25;;;;;;;8.96;100.00;99538.13;5009837;28;20145;-72
2023/10/26 03:32:50;;;;;;;55.17;29.00;;;;;;;8.98;100.00;99539.78;5013934;28;20049;-72
2023/10/26 03:35:18;;;;;;;60.15;29.55;;;;;;;8.98;100.00;99544.16;5014862;28;20055;-72
2023/10/26 03:37:45;;;;;;;47.97;28.40;;;;;;;8.95;100.00;99547.78;5023257;28;20120;-72
2023/10/26 03:40:14;;;;;;;65.72;31.77;;;;;;;8.94;100.00;99547.88;5042298;28;20041;-72
2023/10/26 03:42:42;;;;;;;73.60;33.88;;;;;;;8.91;100.00;99554.09;5028748;28;20029;-72
2023/10/26 03:45:10;;;;;;;71.15;32.95;;;;;;;8.90;100.00;99549.78;5018198;28;20042;-72
2023/10/26 03:47:38;;;;;;;79.78;32.55;;;;;;;8.88;100.00;99543.75;5014562;28;20810;-73
2023/10/26 03:50:07;;;;;;;83.32;34.03;;;;;;;8.83;100.00;99543.06;5009110;28;20061;-72
2023/10/26 03:52:34;;;;;;;96.25;34.63;;;;;;;8.80;100.00;99530.09;5010100;28;20661;-72
2023/10/26 03:55:04;;;;;;;185.88;41.20;;;;;;;8.78;100.00;99531.91;5008508;28;20494;-72
2023/10/26 03:57:34;;;;;;;292.60;45.42;;;;;;;8.76;100.00;99533.75;5014570;28;20042;-72
2023/10/26 04:00:03;;;;;;;280.23;43.20;;;;;;;8.72;100.00;99535.66;5032369;28;20131;-72
2023/10/26 04:02:37;;;;;;;351.13;47.58;;;;;;;8.70;100.00;99548.00;5022702;28;20104;-72
2023/10/26 04:05:04;;;;;;;388.13;50.08;;;;;;;8.66;100.00;99544.66;5021614;28;20426;-72
2023/10/26 04:07:33;;;;;;;387.23;46.85;;;;;;;8.64;100.00;99543.03;5013315;28;20148;-72
2023/10/26 04:10:01;;;;;;;446.15;50.00;;;;;;;8.63;100.00;99534.28;5028623;28;20052;-72
2023/10/26 04:12:28;;;;;;;369.50;42.97;;;;;;;8.60;100.00;99544.91;5029752;28;20079;-72
2023/10/26 04:14:55;;;;;;;534.03;64.18;;;;;;;8.58;100.00;99543.28;5006148;28;20045;-73
2023/10/26 04:17:22;;;;;;;438.52;49.58;;;;;;;8.58;100.00;99544.16;5026488;28;20053;-73
2023/10/26 04:19:49;;;;;;;569.85;63.58;;;;;;;8.60;100.00;99542.28;5024093;28;20072;-72
2023/10/26 04:22:16;;;;;;;412.20;53.40;;;;;;;8.60;100.00;99537.03;5024954;28;20215;-72
2023/10/26 04:24:43;;;;;;;615.42;66.55;;;;;;;8.65;100.00;99547.34;5007623;28;20160;-72
2023/10/26 04:27:11;;;;;;;421.63;55.38;;;;;;;8.65;100.00;99548.22;5008963;28;20041;-72
2023/10/26 04:29:38;;;;;;;163.55;39.70;;;;;;;8.68;100.00;99547.22;5017926;28;20045;-71
2023/10/26 04:32:06;;;;;;;401.23;50.97;;;;;;;8.72;100.00;99537.44;5032093;28;20069;-71
2023/10/26 04:34:33;;;;;;;185.60;40.08;;;;;;;8.74;100.00;99532.97;5026496;28;20041;-71
2023/10/26 04:37:01;;;;;;;737.88;74.57;;;;;;;8.75;100.00;99518.91;5024484;28;20046;-71
2023/10/26 04:39:28;;;;;;;489.90;55.30;;;;;;;8.76;100.00;99523.25;5021556;28;20595;-74
2023/10/26 04:41:55;;;;;;;324.33;44.97;;;;;;;8.74;100.00;99528.59;5023550;28;20041;-73
2023/10/26 04:44:22;;;;;;;219.93;37.67;;;;;;;8.72;100.00;99526.91;5024507;28;20100;-76
2023/10/26 04:46:49;;;;;;;535.20;58.15;;;;;;;8.74;100.00;99539.09;5023973;28;20148;-73
2023/10/26 04:49:16;;;;;;;575.70;68.28;;;;;;;8.72;100.00;99545.31;5025432;28;20575;-72
2023/10/26 04:51:43;;;;;;;414.77;50.45;;;;;;;8.71;100.00;99547.09;5017839;28;20065;-73
2023/10/26 04:54:10;;;;;;;409.98;54.28;;;;;;;8.70;100.00;99543.59;5018532;28;20052;-73
2023/10/26 04:56:37;;;;;;;388.73;47.95;;;;;;;8.70;100.00;99548.00;5048122;28;20041;-73
2023/10/26 04:59:04;;;;;;;551.13;61.30;;;;;;;8.70;100.00;99551.47;5011316;28;20052;-72
2023/10/26 05:01:31;;;;;;;550.75;65.38;;;;;;;8.70;100.00;99554.09;5023295;28;20069;-73
2023/10/26 05:03:58;;;;;;;625.50;69.40;;;;;;;8.74;100.00;99549.59;5014035;28;20054;-73
2023/10/26 05:06:25;;;;;;;388.88;46.60;;;;;;;8.76;100.00;99545.09;5017770;28;20053;-73
2023/10/26 05:08:53;;;;;;;747.35;80.60;;;;;;;8.73;100.00;99534.75;5032648;28;20045;-74
2023/10/26 05:11:20;;;;;;;510.20;64.50;;;;;;;8.69;100.00;99534.03;5022187;28;20460;-74
2023/10/26 05:13:48;;;;;;;283.23;46.95;;;;;;;8.71;100.00;99533.97;5020802;28;20043;-74
2023/10/26 05:16:15;;;;;;;736.60;77.53;;;;;;;8.75;100.00;99532.03;5022718;28;20053;-74
2023/10/26 05:18:42;;;;;;;414.65;55.65;;;;;;;8.77;100.00;99524.97;5022522;28;20129;-73
2023/10/26 05:21:09;;;;;;;692.65;76.13;;;;;;;8.77;100.00;99525.78;5017857;28;20720;-72
2023/10/26 05:23:39;;;;;;;582.15;69.18;;;;;;;8.78;100.00;99529.28;5026011;28;20069;-72
2023/10/26 05:26:06;;;;;;;495.35;60.90;;;;;;;8.77;100.00;99527.59;5027357;28;20051;-71
2023/10/26 05:28:33;;;;;;;452.70;50.38;;;;;;;8.76;100.00;99525.88;5025852;28;20628;-72
2023/10/26 05:31:00;;;;;;;412.65;50.08;;;;;;;8.70;100.00;99519.94;5024357;28;20113;-72
2023/10/26 05:33:27;;;;;;;396.67;48.28;;;;;;;8.63;100.00;99517.69;5022248;28;20604;-72
2023/10/26 05:35:55;;;;;;;264.70;43.60;;;;;;;8.54;100.00;99509.28;5014611;28;20056;-72
2023/10/26 05:38:22;;;;;;;261.85;45.00;;;;;;;8.55;100.00;99510.97;5022214;28;20049;-72
2023/10/26 05:40:53;;;;;;;227.68;42.83;;;;;;;8.55;100.00;99513.59;5019738;28;20147;-71
2023/10/26 05:43:24;;;;;;;313.85;44.15;;;;;;;8.55;100.00;99515.38;5023361;28;20584;-79
2023/10/26 05:45:52;;;;;;;658.97;72.38;;;;;;;8.57;100.00;99518.78;5023096;28;20042;-72
2023/10/26 05:48:19;;;;;;;365.38;47.08;;;;;;;8.54;100.00;99514.53;5023680;28;20053;-72
2023/10/26 05:50:46;;;;;;;552.08;62.05;;;;;;;8.53;100.00;99512.81;5033732;28;20771;-72
2023/10/26 05:53:13;;;;;;;428.60;48.60;;;;;;;8.52;100.00;99515.50;5035626;28;20155;-71
2023/10/26 05:55:40;;;;;;;450.65;53.33;;;;;;;8.47;100.00;99513.06;5045554;28;20531;-72
2023/10/26 05:58:10;;;;;;;213.93;42.28;;;;;;;8.47;100.00;99509.56;5032488;28;20057;-72
2023/10/26 06:00:38;;;;;;;131.90;33.42;;;;;;;8.44;100.00;99513.19;5040678;28;20112;-72
2023/10/26 06:03:05;;;;;;;96.82;31.80;;;;;;;8.45;100.00;99511.41;5033975;28;20065;-72
2023/10/26 06:05:32;;;;;;;197.65;39.40;;;;;;;8.43;100.00;99514.09;5017202;28;20045;-72
2023/10/26 06:07:59;;;;;;;550.30;58.78;;;;;;;8.42;100.00;99511.53;5027149;28;20053;-71
2023/10/26 06:10:27;;;;;;;513.55;64.60;;;;;;;8.40;100.00;99522.94;5026302;28;20050;-73
2023/10/26 06:12:54;;;;;;;455.58;58.88;;;;;;;8.38;100.00;99518.69;5026410;28;20509;-70
2023/10/26 06:15:21;;;;;;;182.32;41.85;;;;;;;8.39;100.00;99515.16;5030848;28;20137;-71
2023/10/26 06:17:48;;;;;;;309.30;46.47;;;;;;;8.42;100.00;99519.41;5024934;28;20099;-71
2023/10/26 06:20:16;;;;;;;148.23;37.35;;;;;;;8.42;100.00;99514.16;5020727;28;20047;-71
2023/10/26 06:22:43;;;;;;;211.63;42.63;;;;;;;8.43;100.00;99527.25;5034132;28;20044;-71
2023/10/26 06:25:11;;;;;;;160.45;37.20;;;;;;;8.45;100.00;99514.88;5026641;28;20142;-71
2023/10/26 06:27:38;;;;;;;216.85;41.20;;;;;;;8.43;100.00;99519.34;5011792;28;20045;-71
2023/10/26 06:30:06;;;;;;;186.45;37.67;;;;;;;8.42;100.00;99514.16;5022037;28;20072;-70
2023/10/26 06:32:35;;;;;;;137.85;33.78;;;;;;;8.42;100.00;99524.66;5024113;28;20797;-71
2023/10/26 06:35:02;;;;;;;205.35;38.65;;;;;;;8.40;100.00;99517.69;5025165;28;20776;-71
2023/10/26 06:37:29;;;;;;;458.63;53.70;;;;;;;8.42;100.00;99525.53;5026518;28;20226;-72
2023/10/26 06:39:56;;;;;;;407.42;42.67;;;;;;;8.42;100.00;99527.28;5025456;28;20206;-74
2023/10/26 06:42:23;;;;;;;448.42;52.65;;;;;;;8.36;100.00;99526.63;5025235;28;20053;-71
2023/10/26 06:44:58;;;;;;;;;;;;;;;8.31;100.00;99517.25;5024951;28;20053;-72
2023/10/26 06:47:25;;;;;;;159.23;37.22;;;;;;;8.29;100.00;99514.66;5025464;28;20028;-71
2023/10/26 06:49:52;;;;;;;171.30;37.42;;;;;;;8.33;100.00;99513.63;5024677;28;20041;-71
2023/10/26 06:52:19;;;;;;;218.60;39.80;;;;;;;8.36;100.00;99516.13;5023940;28;20470;-71
2023/10/26 06:54:50;;;;;;;422.23;46.83;;;;;;;8.40;100.00;99514.22;5026816;28;20041;-71
2023/10/26 06:57:17;;;;;;;224.45;34.42;;;;;;;8.43;100.00;99521.13;5037838;28;20163;-71
2023/10/26 06:59:45;;;;;;;157.70;35.53;;;;;;;8.44;100.00;99521.06;5044795;28;20048;-71
2023/10/26 07:02:12;;;;;;;177.30;38.17;;;;;;;8.48;100.00;99522.66;5041386;28;20623;-72
2023/10/26 07:04:39;;;;;;;232.32;36.30;;;;;;;8.49;100.00;99520.91;5012977;28;20072;-71
2023/10/26 07:07:08;;;;;;;316.33;41.35;;;;;;;8.48;100.00;99514.78;5021148;28;20041;-71
2023/10/26 07:09:36;;;;;;;164.25;32.33;;;;;;;8.46;100.00;99516.56;5038275;28;20561;-71
2023/10/26 07:12:04;;;;;;;83.63;29.02;;;;;;;8.45;100.00;99516.66;5020898;28;20117;-71
2023/10/26 07:14:31;;;;;;;75.00;27.75;;;;;;;8.47;100.00;99523.56;5006091;28;20117;-71
2023/10/26 07:16:58;;;;;;;125.32;32.78;;;;;;;8.51;100.00;99525.16;5006166;28;20065;-71
2023/10/26 07:19:25;;;;;;;156.27;34.20;;;;;;;8.59;100.00;99523.97;5004492;28;20038;-71
2023/10/26 07:21:53;;;;;;;119.22;31.58;;;;;;;8.63;100.00;99515.88;5005303;28;20116;-71
2023/10/26 07:24:20;;;;;;;149.57;33.55;;;;;;;8.66;100.00;99514.91;5045493;28;20049;-71
2023/10/26 07:26:50;;;;;;;186.95;34.47;;;;;;;8.65;100.00;99506.19;5045475;28;20045;-71
2023/10/26 07:29:17;;;;;;;325.45;43.35;;;;;;;8.67;100.00;99512.22;5043989;28;20090;-71
2023/10/26 07:31:44;;;;;;;309.95;42.65;;;;;;;8.68;100.00;99506.06;5044618;28;20158;-71
2023/10/26 07:34:14;;;;;;;154.63;32.40;;;;;;;8.68;100.00;99497.31;5021819;28;20565;-71
2023/10/26 07:36:42;;;;;;;131.20;31.63;;;;;;;8.69;100.00;99492.00;5004406;28;20041;-71
2023/10/26 07:39:09;;;;;;;343.60;43.75;;;;;;;8.72;100.00;99487.50;5020902;28;20050;-71
2023/10/26 07:41:56;;;;;;;359.13;47.35;;;;;;;8.73;100.00;99497.09;5017954;28;20120;-71
2023/10/26 07:44:35;;;;;;;240.95;40.22;;;;;;;8.74;100.00;99501.44;5006113;28;20053;-72
2023/10/26 07:47:03;;;;;;;271.63;37.72;;;;;;;8.75;100.00;99500.50;5005353;28;20580;-72
2023/10/26 07:49:31;;;;;;;165.57;34.70;;;;;;;8.71;100.00;99494.53;5020636;28;20054;-71
2023/10/26 07:51:58;;;;;;;505.50;55.15;;;;;;;8.74;100.00;99490.91;5008362;28;20053;-71
2023/10/26 07:54:25;;;;;;;162.90;35.92;;;;;;;8.77;100.00;99499.50;5045579;28;20053;-71
2023/10/26 07:56:52;;;;;;;228.93;40.72;;;;;;;8.81;100.00;99494.97;5046128;28;20062;-71
2023/10/26 07:59:19;;;;;;;160.10;34.13;;;;;;;8.86;100.00;99493.00;5044119;28;20057;-72
2023/10/26 08:01:47;;;;;;;207.32;33.83;;;;;;;8.89;100.00;99490.25;5044290;28;20041;-71
2023/10/26 08:04:15;;;;;;;92.20;28.80;;;;;;;8.88;100.00;99490.31;5025525;28;20425;-71
2023/10/26 08:06:42;;;;;;;92.57;29.52;;;;;;;8.89;100.00;99497.28;5025991;28;20049;-71
2023/10/26 08:09:09;;;;;;;105.88;29.85;;;;;;;8.94;100.00;99516.34;5025602;28;20050;-71
2023/10/26 08:11:37;;;;;;;94.85;29.75;;;;;;;8.98;100.00;99513.50;5044671;28;20493;-71
2023/10/26 08:14:05;;;;;;;96.00;29.83;;;;;;;9.06;100.00;99512.28;5028591;28;20053;-71
2023/10/26 08:16:52;;;;;;;262.25;39.53;;;;;;;9.13;100.00;99519.84;5028459;28;20688;-71
2023/10/26 08:19:19;;;;;;;158.65;32.83;;;;;;;9.14;100.00;99533.81;5043962;28;20045;-71
2023/10/26 08:21:46;;;;;;;99.63;30.05;;;;;;;9.14;100.00;99533.81;5028762;28;20091;-71
2023/10/26 08:24:15;;;;;;;155.48;34.42;;;;;;;9.13;100.00;99532.13;5037327;28;20045;-72
2023/10/26 08:26:42;;;;;;;113.57;29.35;;;;;;;9.12;100.00;99530.41;5048468;28;20110;-72
2023/10/26 08:29:10;;;;;;;67.05;27.17;;;;;;;9.14;100.00;99539.06;5047387;28;20494;-71
2023/10/26 08:31:44;;;;;;;82.63;28.13;;;;;;;9.12;100.00;99531.28;5048903;28;20321;-71
2023/10/26 08:34:11;;;;;;;143.43;32.55;;;;;;;9.12;100.00;99536.53;5030949;28;20537;-71
2023/10/26 08:36:38;;;;;;;91.50;27.08;;;;;;;9.11;100.00;99547.09;5047822;28;20582;-71
2023/10/26 08:39:10;;;;;;;124.68;29.40;;;;;;;9.06;100.00;99541.22;5048679;28;20111;-70
2023/10/26 08:41:37;;;;;;;160.77;33.40;;;;;;;9.00;100.00;99543.16;5048648;28;20128;-72
2023/10/26 08:44:05;;;;;;;114.75;31.23;;;;;;;8.97;100.00;99550.34;5048096;28;20532;-72
2023/10/26 08:46:32;;;;;;;95.43;25.70;;;;;;;8.98;100.00;99552.94;5048242;28;20056;-73
2023/10/26 08:49:02;;;;;;;93.82;28.50;;;;;;;9.01;100.00;99552.75;5048214;28;20591;-71
2023/10/26 08:51:29;;;;;;;56.05;22.55;;;;;;;9.07;100.00;99558.69;5047446;28;20667;-71
2023/10/26 08:53:56;;;;;;;46.13;23.38;;;;;;;9.09;100.00;99565.56;5047547;28;20045;-71
2023/10/26 08:56:24;;;;;;;57.25;24.85;;;;;;;9.14;100.00;99568.88;5047093;28;20053;-71
2023/10/26 08:58:59;;;;;;;45.40;22.50;;;;;;;9.19;100.00;99579.19;5046470;28;20120;-71
2023/10/26 09:01:26;;;;;;;72.72;27.02;;;;;;;9.20;100.00;99580.03;5047637;28;20520;-72
2023/10/26 09:03:53;;;;;;;83.22;27.50;;;;;;;9.23;100.00;99578.09;5029594;28;20100;-72
2023/10/26 09:06:20;;;;;;;94.10;28.17;;;;;;;9.24;100.00;99582.44;5023588;28;20120;-71
2023/10/26 09:09:01;;;;;;;95.68;26.05;;;;;;;9.19;100.00;99573.94;5026720;28;20071;-71
2023/10/26 09:11:28;;;;;;;161.82;32.75;;;;;;;9.13;100.00;99571.56;5060016;28;20064;-71
2023/10/26 09:14:16;;;;;;;88.75;27.17;;;;;;;9.12;100.00;99568.09;5027615;28;20064;-73
2023/10/26 09:16:45;;;;;;;112.63;29.92;;;;;;;9.13;100.00;99561.03;5027219;28;20128;-71
2023/10/26 09:19:18;;;;;;;90.50;27.42;;;;;;;9.13;100.00;99558.41;5027794;28;20463;-71
2023/10/26 09:21:55;;;;;;;106.43;29.05;;;;;;;9.14;100.00;99553.09;5026116;28;20060;-71
2023/10/26 09:24:25;;;;;;;132.52;32.25;;;;;;;9.13;100.00;99559.28;5027093;28;20439;-72
2023/10/26 09:27:03;;;;;;;101.07;28.25;;;;;;;9.14;100.00;99568.00;5045384;28;20124;-71
2023/10/26 09:29:42;;;;;;;140.02;33.85;;;;;;;9.14;100.00;99562.75;5048066;28;20057;-71
2023/10/26 09:32:12;;;;;;;138.73;30.77;;;;;;;9.17;100.00;99552.94;5043722;28;20041;-71
2023/10/26 09:34:41;;;;;;;85.88;28.35;;;;;;;9.22;100.00;99541.38;5010762;28;20045;-72
2023/10/26 09:37:11;;;;;;;87.68;27.50;;;;;;;9.25;100.00;99536.81;5027499;28;20573;-72
2023/10/26 09:39:41;;;;;;;94.22;28.05;;;;;;;9.29;100.00;99535.78;5026576;28;20168;-72
2023/10/26 09:42:11;;;;;;;74.35;24.85;;;;;;;9.35;100.00;99533.75;5026163;28;20037;-71
2023/10/26 09:44:39;;;;;;;59.92;23.33;;;;;;;9.39;100.00;99537.97;5026903;28;20042;-71
2023/10/26 09:47:07;;;;;;;63.97;25.65;;;;;;;9.41;100.00;99536.97;5035066;28;20064;-73
2023/10/26 09:49:34;;;;;;;37.17;18.77;;;;;;;9.50;100.00;99540.09;5046355;28;20080;-70
2023/10/26 09:52:01;;;;;;;34.63;18.85;;;;;;;9.45;100.00;99541.19;5046820;28;20057;-72
2023/10/26 09:54:36;;;;;;;40.20;19.23;;;;;;;9.45;100.00;99535.91;5019039;28;20562;-72
2023/10/26 09:57:30;;;;;;;46.58;23.15;;;;;;;9.50;100.00;99529.56;5006044;28;20042;-72
2023/10/26 09:59:58;;;;;;;41.97;20.90;;;;;;;9.59;100.00;99531.75;5020464;28;20490;-71
2023/10/26 10:02:27;;;;;;;50.92;21.42;;;;;;;9.54;100.00;99539.03;5026653;28;20041;-71
2023/10/26 10:04:54;;;;;;;42.97;20.73;;;;;;;9.49;100.00;99539.25;5025122;28;20076;-73
2023/10/26 10:07:45;;;;;;;54.25;23.73;;;;;;;9.44;100.00;99538.59;5027200;28;20134;-72
2023/10/26 10:10:13;;;;;;;47.47;22.38;;;;;;;9.41;100.00;99539.59;5025661;28;20509;-71
2023/10/26 10:12:42;;;;;;;60.75;24.55;;;;;;;9.44;100.00;99534.22;5015225;28;20095;-71
2023/10/26 10:15:11;;;;;;;41.33;21.42;;;;;;;9.49;100.00;99536.63;5007769;28;20128;-71
2023/10/26 10:17:44;;;;;;;47.33;23.02;;;;;;;9.53;100.00;99542.59;5041091;28;20532;-71
2023/10/26 10:20:14;;;;;;;42.83;21.38;;;;;;;9.57;100.00;99541.50;5024534;28;20050;-71
2023/10/26 10:22:44;;;;;;;46.38;21.75;;;;;;;9.60;100.00;99533.47;5004546;28;20761;-71
2023/10/26 10:25:13;;;;;;;43.63;21.27;;;;;;;9.63;100.00;99539.44;5025383;28;20498;-71
2023/10/26 10:28:00;;;;;;;45.60;22.27;;;;;;;9.67;100.00;99534.88;5038119;28;20132;-71
2023/10/26 10:30:45;;;;;;;40.70;20.63;;;;;;;9.75;100.00;99534.53;5040827;28;20041;-71
2023/10/26 10:33:25;;;;;;;38.03;20.95;;;;;;;9.79;100.00;99531.66;5011049;28;20116;-72
2023/10/26 10:36:04;;;;;;;35.13;20.42;;;;;;;9.85;100.00;99534.94;5023677;28;20051;-73
2023/10/26 10:38:32;;;;;;;32.83;18.92;;;;;;;9.87;100.00;99530.47;5024892;28;20457;-73
2023/10/26 10:40:59;;;;;;;35.10;20.75;;;;;;;9.89;100.00;99529.47;5025293;28;20156;-71
2023/10/26 10:43:35;;;;;;;37.05;20.25;;;;;;;9.93;100.00;99523.09;5025705;28;20048;-72
2023/10/26 10:46:10;;;;;;;38.63;21.52;;;;;;;9.94;100.00;99516.06;5026017;28;20652;-71
2023/10/26 10:48:54;;;;;;;;;;;;;;;9.95;100.00;99510.72;5041119;28;20052;-71
2023/10/26 10:51:22;;;;;;;34.85;19.05;;;;;;;10.05;100.00;99507.63;5009023;28;19927;-73
2023/10/26 10:53:52;;;;;;;30.90;17.70;;;;;;;10.08;100.00;99508.34;5038538;28;20037;-72
2023/10/26 10:56:19;;;;;;;36.22;20.15;;;;;;;10.18;100.00;99505.25;5005650;28;20069;-71
2023/10/26 10:58:46;;;;;;;31.13;19.50;;;;;;;10.34;100.00;99510.59;5006771;28;20054;-71
2023/10/26 11:01:20;;;;;;;31.33;18.65;;;;;;;10.47;100.00;99495.91;5023105;28;20512;-72
2023/10/26 11:03:48;;;;;;;27.60;17.80;;;;;;;10.59;100.00;99504.13;5025832;28;20818;-72
2023/10/26 11:06:18;;;;;;;27.17;17.70;;;;;;;10.60;100.00;99493.47;5039075;28;20056;-72
2023/10/26 11:08:45;;;;;;;27.80;17.33;;;;;;;10.55;100.00;99493.72;5021157;28;20173;-71
2023/10/26 11:11:33;;;;;;;24.55;16.40;;;;;;;10.55;100.00;99498.16;5022831;28;20457;-71
2023/10/26 11:14:10;;;;;;;25.98;16.15;;;;;;;10.49;100.00;99485.28;5021704;28;20046;-72
2023/10/26 11:16:40;;;;;;;22.58;15.90;;;;;;;10.43;100.00;99478.53;5018385;28;20045;-72
2023/10/26 11:19:07;;;;;;;26.75;17.58;;;;;;;10.38;100.00;99483.22;5003611;28;20600;-72
2023/10/26 11:21:35;;;;;;;26.23;17.20;;;;;;;10.40;100.00;99476.09;5022145;28;20469;-72